Time;durP1;ratioP1;P1;durP2;ratioP2;P2;SDS_P1;SDS_P2;PMS_P1;PMS_P2;Temp;Humidity;BMP_temperature;BMP_pressure;BME280_temperature;BME280_humidity;BME280_pressure;Samples;Min_cycle;Max_cycle;Signal;HPM_P1;HPM_P2
2023/03/17 00:01:07;;;;;;;37.20;19.00;;;;;;;;;;5008395;28;20402;-80
2023/03/17 00:03:53;;;;;;;34.95;16.65;;;;;;;;;;5013103;28;20058;-80
2023/03/17 00:06:40;;;;;;;40.92;20.00;;;;;;;;;;5022913;28;20037;-80
2023/03/17 00:09:24;;;;;;;34.95;15.05;;;;;;;;;;5022736;28;20406;-80
2023/03/17 00:12:10;;;;;;;40.22;18.45;;;;;;;;;;5007063;28;20045;-81
2023/03/17 00:14:56;;;;;;;40.65;19.10;;;;;;;;;;5020523;28;20045;-80
2023/03/17 00:17:42;;;;;;;40.40;17.75;;;;;;;;;;5022962;28;20041;-80
2023/03/17 00:20:31;;;;;;;34.03;17.45;;;;;;;;;;5022530;28;20042;-80
2023/03/17 00:23:23;;;;;;;63.30;25.13;;;;;;;;;;5022841;28;20485;-80
2023/03/17 00:26:09;;;;;;;31.95;16.42;;;;;;;;;;5020505;28;20046;-81
2023/03/17 00:28:54;;;;;;;37.38;17.38;;;;;;;;;;5021568;28;20045;-80
2023/03/17 00:31:43;;;;;;;35.83;17.13;;;;;;;;;;5020820;28;20050;-80
2023/03/17 00:34:29;;;;;;;38.75;17.95;;;;;;;;;;5022292;28;20053;-80
2023/03/17 00:37:14;;;;;;;33.10;17.98;;;;;;;;;;5014173;28;20038;-79
2023/03/17 00:40:00;;;;;;;44.92;16.42;;;;;;;;;;5019340;28;20045;-80
2023/03/17 00:42:47;;;;;;;31.38;14.70;;;;;;;;;;5022599;28;20049;-80
2023/03/17 00:45:33;;;;;;;29.77;14.68;;;;;;;;;;5020353;28;20041;-79
2023/03/17 00:48:20;;;;;;;26.88;13.32;;;;;;;;;;5021808;28;20033;-80
2023/03/17 00:51:06;;;;;;;26.08;13.20;;;;;;;;;;5020221;28;20041;-79
2023/03/17 00:53:51;;;;;;;29.45;15.50;;;;;;;;;;5005862;28;20042;-79
2023/03/17 00:56:39;;;;;;;27.05;13.88;;;;;;;;;;5022067;28;20038;-79
2023/03/17 00:59:27;;;;;;;32.65;13.80;;;;;;;;;;5020332;28;20045;-80
2023/03/17 01:02:13;;;;;;;29.90;13.55;;;;;;;;;;5019785;28;20037;-80
2023/03/17 01:04:59;;;;;;;36.95;14.93;;;;;;;;;;5011251;28;20050;-80
2023/03/17 01:07:51;;;;;;;27.58;14.63;;;;;;;;;;5016386;28;20054;-80
2023/03/17 01:10:37;;;;;;;26.25;11.85;;;;;;;;;;5011804;28;20046;-80
2023/03/17 01:13:23;;;;;;;26.90;13.88;;;;;;;;;;5011909;28;20411;-80
2023/03/17 01:16:09;;;;;;;30.42;13.70;;;;;;;;;;5016697;28;20046;-80
2023/03/17 01:18:54;;;;;;;25.80;12.48;;;;;;;;;;5016615;28;20041;-78
2023/03/17 01:21:40;;;;;;;27.52;11.98;;;;;;;;;;5017048;28;20046;-81
2023/03/17 01:24:26;;;;;;;30.92;12.80;;;;;;;;;;5016863;28;20050;-80
2023/03/17 01:27:11;;;;;;;18.70;9.32;;;;;;;;;;5010047;28;20045;-80
2023/03/17 01:29:56;;;;;;;20.45;10.10;;;;;;;;;;5016479;28;20042;-80
2023/03/17 01:32:42;;;;;;;32.60;10.95;;;;;;;;;;5015864;28;20038;-80
2023/03/17 01:35:29;;;;;;;26.58;10.45;;;;;;;;;;5011148;28;20041;-80
2023/03/17 01:38:14;;;;;;;28.92;11.48;;;;;;;;;;5016624;28;20046;-80
2023/03/17 01:41:00;;;;;;;33.88;11.85;;;;;;;;;;5011712;28;20033;-80
2023/03/17 01:43:45;;;;;;;25.40;9.13;;;;;;;;;;5011158;28;20490;-80
2023/03/17 01:46:33;;;;;;;33.15;11.32;;;;;;;;;;5011194;28;20407;-80
2023/03/17 01:49:33;;;;;;;22.42;9.80;;;;;;;;;;5016349;28;20042;-80
2023/03/17 01:52:21;;;;;;;26.85;11.45;;;;;;;;;;5016303;28;20049;-80
2023/03/17 01:55:11;;;;;;;21.92;10.77;;;;;;;;;;5008957;28;20046;-80
2023/03/17 01:57:57;;;;;;;20.40;10.85;;;;;;;;;;5015658;28;20053;-80
2023/03/17 02:00:42;;;;;;;24.35;10.32;;;;;;;;;;5015685;28;20054;-80
2023/03/17 02:03:28;;;;;;;22.77;10.23;;;;;;;;;;5013473;28;20050;-80
2023/03/17 02:06:13;;;;;;;19.75;9.75;;;;;;;;;;5009220;28;20057;-80
2023/03/17 02:09:00;;;;;;;16.75;9.73;;;;;;;;;;5016235;28;20046;-81
2023/03/17 02:11:45;;;;;;;16.42;9.35;;;;;;;;;;5010311;28;20410;-80
2023/03/17 02:14:31;;;;;;;19.55;8.48;;;;;;;;;;5013649;28;20045;-80
2023/03/17 02:17:17;;;;;;;17.95;8.82;;;;;;;;;;5007203;28;20486;-80
2023/03/17 02:20:16;;;;;;;12.60;6.45;;;;;;;;;;5009076;28;20038;-80
2023/03/17 02:23:03;;;;;;;21.45;8.95;;;;;;;;;;5014096;28;20038;-80
2023/03/17 02:25:50;;;;;;;14.00;7.47;;;;;;;;;;5008679;28;20486;-80
2023/03/17 02:28:35;;;;;;;21.10;6.68;;;;;;;;;;5001051;28;20428;-80
2023/03/17 02:31:24;;;;;;;14.90;7.72;;;;;;;;;;5009486;28;20053;-80
2023/03/17 02:34:11;;;;;;;10.38;6.43;;;;;;;;;;5009036;28;20050;-80
2023/03/17 02:36:57;;;;;;;5.57;2.80;;;;;;;;;;5014174;28;20046;-80
2023/03/17 02:39:42;;;;;;;5.45;3.25;;;;;;;;;;5008514;28;20491;-80
2023/03/17 02:42:28;;;;;;;21.27;3.78;;;;;;;;;;5014236;28;20042;-80
2023/03/17 02:45:16;;;;;;;20.73;9.55;;;;;;;;;;5013951;28;20054;-80
2023/03/17 02:48:04;;;;;;;9.50;5.72;;;;;;;;;;5009020;28;20474;-80
2023/03/17 02:50:49;;;;;;;12.27;6.32;;;;;;;;;;5007073;28;20041;-80
2023/03/17 02:53:35;;;;;;;7.63;4.15;;;;;;;;;;5012473;28;20038;-80
2023/03/17 02:56:20;;;;;;;12.32;6.18;;;;;;;;;;5013632;28;20046;-80
2023/03/17 02:59:07;;;;;;;14.48;6.65;;;;;;;;;;5012685;28;20426;-80
2023/03/17 03:01:52;;;;;;;11.77;5.55;;;;;;;;;;5011525;28;20053;-80
2023/03/17 03:04:37;;;;;;;15.38;7.88;;;;;;;;;;5028722;28;20061;-80
2023/03/17 03:07:23;;;;;;;47.00;21.80;;;;;;;;;;5032070;28;20486;-80
2023/03/17 03:10:09;;;;;;;30.65;12.20;;;;;;;;;;5030971;28;20033;-80
2023/03/17 03:12:54;;;;;;;24.67;11.63;;;;;;;;;;5032662;28;20042;-80
2023/03/17 03:15:41;;;;;;;30.58;16.75;;;;;;;;;;5030391;28;20041;-80
2023/03/17 03:18:26;;;;;;;25.05;13.07;;;;;;;;;;5032605;28;20057;-80
2023/03/17 03:21:12;;;;;;;22.08;9.85;;;;;;;;;;5031544;28;20033;-80
2023/03/17 03:23:57;;;;;;;23.48;8.27;;;;;;;;;;5036299;28;20046;-80
2023/03/17 03:26:42;;;;;;;17.17;7.07;;;;;;;;;;5031317;28;20402;-81
2023/03/17 03:29:28;;;;;;;17.10;7.93;;;;;;;;;;5031210;28;20097;-81
2023/03/17 03:32:13;;;;;;;16.55;7.85;;;;;;;;;;5031945;28;20490;-81
2023/03/17 03:34:59;;;;;;;20.42;7.90;;;;;;;;;;5031446;28;20042;-81
2023/03/17 03:37:44;;;;;;;13.77;6.78;;;;;;;;;;5031708;28;20053;-81
2023/03/17 03:40:30;;;;;;;12.23;7.10;;;;;;;;;;5031244;28;20050;-81
2023/03/17 03:43:15;;;;;;;16.17;4.70;;;;;;;;;;5035786;28;20045;-81
2023/03/17 03:46:01;;;;;;;16.23;5.78;;;;;;;;;;5029262;28;20057;-81
2023/03/17 03:48:47;;;;;;;14.38;7.05;;;;;;;;;;5030080;28;20041;-81
2023/03/17 03:51:32;;;;;;;13.80;6.97;;;;;;;;;;5030083;28;20041;-81
2023/03/17 03:54:18;;;;;;;14.50;6.32;;;;;;;;;;5031538;28;20037;-81
2023/03/17 03:57:03;;;;;;;10.45;4.57;;;;;;;;;;5035182;28;20057;-81
2023/03/17 03:59:48;;;;;;;7.70;4.28;;;;;;;;;;5030579;28;20412;-81
2023/03/17 04:02:34;;;;;;;12.07;7.18;;;;;;;;;;5030330;28;20041;-81
2023/03/17 04:05:19;;;;;;;14.52;7.43;;;;;;;;;;5022208;28;20049;-81
2023/03/17 04:08:05;;;;;;;14.27;6.95;;;;;;;;;;5030813;28;20041;-81
2023/03/17 04:10:50;;;;;;;15.57;6.82;;;;;;;;;;5030904;28;20045;-80
2023/03/17 04:13:37;;;;;;;17.33;6.85;;;;;;;;;;5036722;28;20057;-80
2023/03/17 04:16:23;;;;;;;11.73;6.28;;;;;;;;;;5031424;28;20394;-82
2023/03/17 04:19:08;;;;;;;17.85;6.18;;;;;;;;;;5022624;28;20049;-81
2023/03/17 04:21:54;;;;;;;11.43;5.43;;;;;;;;;;5029493;28;20049;-81
2023/03/17 04:24:39;;;;;;;15.43;5.90;;;;;;;;;;5029022;28;20037;-82
2023/03/17 04:27:25;;;;;;;19.42;6.90;;;;;;;;;;5030717;28;20042;-81
2023/03/17 04:30:15;;;;;;;18.08;7.80;;;;;;;;;;5030106;28;20049;-82
2023/03/17 04:33:01;;;;;;;23.67;9.65;;;;;;;;;;5027737;28;20772;-82
2023/03/17 04:35:46;;;;;;;29.10;8.70;;;;;;;;;;5028835;28;20045;-81
2023/03/17 04:38:32;;;;;;;17.52;7.10;;;;;;;;;;5030369;28;20033;-81
2023/03/17 04:41:19;;;;;;;19.60;7.93;;;;;;;;;;5030230;28;20397;-81
2023/03/17 04:44:05;;;;;;;19.35;8.27;;;;;;;;;;5037175;28;20042;-81
2023/03/17 04:46:51;;;;;;;18.38;8.70;;;;;;;;;;5031453;28;20049;-81
2023/03/17 04:49:37;;;;;;;22.00;9.13;;;;;;;;;;5037782;28;20405;-81
2023/03/17 04:52:22;;;;;;;27.80;9.52;;;;;;;;;;5031428;28;20034;-81
2023/03/17 04:55:08;;;;;;;18.55;9.32;;;;;;;;;;5036876;28;20053;-81
2023/03/17 04:57:53;;;;;;;21.00;9.23;;;;;;;;;;5030910;28;20045;-81
2023/03/17 05:00:38;;;;;;;18.17;8.90;;;;;;;;;;5031676;28;20053;-81
2023/03/17 05:03:24;;;;;;;21.33;8.63;;;;;;;;;;5030096;28;20049;-81
2023/03/17 05:06:09;;;;;;;21.90;9.07;;;;;;;;;;5026970;28;20041;-80
2023/03/17 05:08:55;;;;;;;28.20;9.13;;;;;;;;;;5042210;28;20041;-80
2023/03/17 05:11:41;;;;;;;18.98;9.30;;;;;;;;;;5040754;28;20050;-80
2023/03/17 05:14:26;;;;;;;27.08;12.98;;;;;;;;;;5025174;28;20061;-80
2023/03/17 05:17:11;;;;;;;31.60;17.05;;;;;;;;;;5033749;28;20513;-81
2023/03/17 05:19:56;;;;;;;36.85;17.15;;;;;;;;;;5041212;28;20710;-80
2023/03/17 05:22:42;;;;;;;28.10;15.05;;;;;;;;;;5041693;28;20049;-81
2023/03/17 05:25:27;;;;;;;25.48;12.05;;;;;;;;;;5041007;28;20052;-81
2023/03/17 05:28:13;;;;;;;19.80;8.85;;;;;;;;;;5041042;28;20033;-80
2023/03/17 05:30:58;;;;;;;12.48;7.30;;;;;;;;;;5041284;28;20045;-80
2023/03/17 05:33:45;;;;;;;27.60;8.25;;;;;;;;;;5032177;28;20464;-80
2023/03/17 05:36:31;;;;;;;17.98;9.23;;;;;;;;;;5018669;28;20490;-80
2023/03/17 05:39:16;;;;;;;20.13;9.15;;;;;;;;;;5026515;28;20061;-80
2023/03/17 05:42:02;;;;;;;22.23;7.63;;;;;;;;;;5032430;28;20049;-80
2023/03/17 05:44:47;;;;;;;22.30;7.43;;;;;;;;;;5018771;28;20048;-80
2023/03/17 05:47:34;;;;;;;20.30;6.70;;;;;;;;;;5040098;28;20037;-81
2023/03/17 05:50:20;;;;;;;19.58;7.50;;;;;;;;;;5031952;28;20049;-81
2023/03/17 05:53:05;;;;;;;17.75;8.10;;;;;;;;;;5025898;28;20049;-81
2023/03/17 05:55:51;;;;;;;11.35;6.28;;;;;;;;;;5040665;28;20036;-81
2023/03/17 05:58:38;;;;;;;13.65;6.57;;;;;;;;;;5032523;28;20053;-80
2023/03/17 06:01:23;;;;;;;18.42;7.80;;;;;;;;;;5040700;28;20045;-81
2023/03/17 06:04:09;;;;;;;20.63;8.15;;;;;;;;;;5033989;28;20053;-80
2023/03/17 06:06:54;;;;;;;26.80;11.20;;;;;;;;;;5015059;28;20058;-80
2023/03/17 06:09:39;;;;;;;16.88;9.23;;;;;;;;;;5007615;28;20045;-80
2023/03/17 06:12:24;;;;;;;23.13;10.15;;;;;;;;;;5030412;28;20033;-81
2023/03/17 06:15:10;;;;;;;30.38;13.18;;;;;;;;;;5030314;28;20041;-81
2023/03/17 06:17:55;;;;;;;39.85;17.92;;;;;;;;;;5013835;28;20037;-81
2023/03/17 06:20:40;;;;;;;37.45;11.50;;;;;;;;;;5014157;28;20046;-82
2023/03/17 06:23:26;;;;;;;32.15;11.80;;;;;;;;;;5029670;28;20049;-81
2023/03/17 06:26:11;;;;;;;73.88;28.63;;;;;;;;;;5027988;28;20053;-82
2023/03/17 06:28:56;;;;;;;38.88;15.60;;;;;;;;;;5020932;28;20490;-81
2023/03/17 06:31:49;;;;;;;6.07;3.55;;;;;;;;;;5013417;28;20038;-81
2023/03/17 06:34:34;;;;;;;4.53;2.72;;;;;;;;;;5014883;28;20034;-81
2023/03/17 06:37:20;;;;;;;10.77;5.22;;;;;;;;;;5029112;28;20045;-81
2023/03/17 06:40:08;;;;;;;6.43;3.80;;;;;;;;;;5027983;28;20038;-80
2023/03/17 06:42:53;;;;;;;7.57;4.32;;;;;;;;;;5030152;28;20041;-81
2023/03/17 06:45:38;;;;;;;4.30;3.17;;;;;;;;;;5014679;28;20495;-81
2023/03/17 06:48:29;;;;;;;15.13;8.02;;;;;;;;;;5019073;28;20054;-87
2023/03/17 06:51:14;;;;;;;8.73;5.22;;;;;;;;;;5011906;28;20494;-81
2023/03/17 06:54:00;;;;;;;20.30;9.02;;;;;;;;;;5029962;28;20394;-80
2023/03/17 06:56:46;;;;;;;7.57;4.57;;;;;;;;;;5027523;28;20405;-81
2023/03/17 06:59:31;;;;;;;5.85;4.20;;;;;;;;;;5027798;28;20050;-80
2023/03/17 07:02:15;;;;;;;10.02;3.95;;;;;;;;;;5028278;28;20029;-80
2023/03/17 07:05:03;;;;;;;15.05;7.20;;;;;;;;;;5027509;28;20490;-79
2023/03/17 07:07:48;;;;;;;9.40;4.93;;;;;;;;;;5005800;28;20073;-81
2023/03/17 07:10:35;;;;;;;12.07;5.30;;;;;;;;;;5005821;28;20040;-81
2023/03/17 07:13:21;;;;;;;9.75;3.67;;;;;;;;;;4991592;28;20041;-81
2023/03/17 07:16:06;;;;;;;19.10;6.18;;;;;;;;;;5005923;28;20057;-81
2023/03/17 07:18:51;;;;;;;12.00;6.28;;;;;;;;;;5017851;28;20049;-81
2023/03/17 07:21:37;;;;;;;10.15;5.72;;;;;;;;;;5017901;28;20050;-81
2023/03/17 07:24:23;;;;;;;9.40;4.43;;;;;;;;;;5007488;28;20046;-81
2023/03/17 07:27:09;;;;;;;14.13;4.95;;;;;;;;;;5018308;28;20406;-80
2023/03/17 07:29:54;;;;;;;11.50;4.93;;;;;;;;;;5017988;28;20502;-81
2023/03/17 07:32:40;;;;;;;25.40;8.88;;;;;;;;;;5017570;28;20041;-77
2023/03/17 07:35:27;;;;;;;13.02;4.80;;;;;;;;;;5017474;28;20050;-79
2023/03/17 07:38:12;;;;;;;5.93;3.58;;;;;;;;;;5021233;28;20050;-82
2023/03/17 07:40:58;;;;;;;17.13;7.70;;;;;;;;;;5009742;28;20038;-81
2023/03/17 07:43:44;;;;;;;16.17;8.45;;;;;;;;;;5018942;28;20053;-81
2023/03/17 07:46:29;;;;;;;10.77;4.32;;;;;;;;;;5008230;28;20049;-81
2023/03/17 07:49:15;;;;;;;6.28;3.53;;;;;;;;;;5019576;28;20482;-81
2023/03/17 07:52:00;;;;;;;12.50;5.97;;;;;;;;;;5032349;28;20474;-80
2023/03/17 07:54:46;;;;;;;7.10;3.88;;;;;;;;;;5031928;28;20354;-79
2023/03/17 07:57:32;;;;;;;7.18;3.97;;;;;;;;;;5022796;28;20045;-81
2023/03/17 08:00:18;;;;;;;19.10;7.00;;;;;;;;;;5016454;28;20405;-80
2023/03/17 08:03:04;;;;;;;3.70;3.03;;;;;;;;;;5021980;28;20045;-81
2023/03/17 08:05:56;;;;;;;7.57;4.13;;;;;;;;;;5030237;28;20049;-81
2023/03/17 08:08:41;;;;;;;7.57;3.92;;;;;;;;;;5030313;28;20053;-80
2023/03/17 08:11:27;;;;;;;7.40;4.40;;;;;;;;;;5030226;28;20493;-81
2023/03/17 08:14:13;;;;;;;8.45;4.18;;;;;;;;;;5030228;28;20045;-79
2023/03/17 08:16:58;;;;;;;9.45;2.92;;;;;;;;;;5032593;28;20041;-81
2023/03/17 08:19:44;;;;;;;10.50;4.55;;;;;;;;;;5029930;28;20053;-79
2023/03/17 08:22:30;;;;;;;10.75;5.57;;;;;;;;;;5031706;28;20486;-80
2023/03/17 08:25:16;;;;;;;6.07;3.03;;;;;;;;;;5029891;28;20038;-80
2023/03/17 08:28:02;;;;;;;11.32;4.22;;;;;;;;;;5021852;28;20482;-81
2023/03/17 08:30:48;;;;;;;12.50;5.43;;;;;;;;;;5016648;28;20049;-81
2023/03/17 08:33:33;;;;;;;9.32;4.85;;;;;;;;;;5049040;28;20394;-79
2023/03/17 08:36:20;;;;;;;10.00;4.82;;;;;;;;;;5029876;28;21249;-80
2023/03/17 08:39:05;;;;;;;15.23;6.47;;;;;;;;;;5030003;28;20049;-81
2023/03/17 08:41:51;;;;;;;8.30;3.50;;;;;;;;;;5029803;28;20049;-81
2023/03/17 08:44:36;;;;;;;6.18;2.65;;;;;;;;;;5037089;28;20045;-81
2023/03/17 08:47:22;;;;;;;13.70;4.80;;;;;;;;;;5036910;28;20053;-80
2023/03/17 08:50:12;;;;;;;5.85;3.30;;;;;;;;;;5035935;28;20805;-80
2023/03/17 08:52:57;;;;;;;6.18;3.13;;;;;;;;;;5038114;28;20045;-82
2023/03/17 08:55:43;;;;;;;8.30;4.57;;;;;;;;;;5037831;28;20045;-79
2023/03/17 08:58:28;;;;;;;7.93;4.57;;;;;;;;;;5021349;28;20037;-79
2023/03/17 09:01:15;;;;;;;12.50;6.82;;;;;;;;;;5019138;28;20046;-81
2023/03/17 09:04:01;;;;;;;5.30;4.00;;;;;;;;;;5031434;28;20049;-81
2023/03/17 09:06:47;;;;;;;6.93;3.88;;;;;;;;;;5030991;28;20037;-80
2023/03/17 09:09:34;;;;;;;5.80;3.70;;;;;;;;;;5031051;28;20033;-79
2023/03/17 09:12:19;;;;;;;12.27;4.78;;;;;;;;;;5029222;28;20057;-80
2023/03/17 09:15:06;;;;;;;11.07;3.28;;;;;;;;;;5029164;28;20037;-81
2023/03/17 09:17:51;;;;;;;8.50;3.92;;;;;;;;;;5029825;28;20045;-80
2023/03/17 09:20:37;;;;;;;3.72;1.95;;;;;;;;;;5034846;28;20053;-81
2023/03/17 09:23:22;;;;;;;3.60;2.65;;;;;;;;;;5027791;28;20045;-80
2023/03/17 09:26:09;;;;;;;6.45;2.33;;;;;;;;;;5029469;28;20045;-79
2023/03/17 09:28:54;;;;;;;4.80;2.95;;;;;;;;;;5030986;28;20037;-79
2023/03/17 09:31:40;;;;;;;12.85;5.57;;;;;;;;;;5034426;28;20041;-80
2023/03/17 09:34:25;;;;;;;7.93;2.92;;;;;;;;;;5035417;28;20053;-80
2023/03/17 09:37:10;;;;;;;5.78;3.65;;;;;;;;;;5028809;28;20045;-80
2023/03/17 09:39:59;;;;;;;8.63;3.75;;;;;;;;;;5029220;28;20076;-81
2023/03/17 09:43:17;;;;;;;5.72;3.90;;;;;;;;;;5029372;28;20390;-80
2023/03/17 09:46:22;;;;;;;2.60;1.70;;;;;;;;;;5036161;28;20041;-81
2023/03/17 09:49:10;;;;;;;10.82;5.72;;;;;;;;;;5033407;28;20049;-80
2023/03/17 09:51:57;;;;;;;9.02;4.75;;;;;;;;;;5026735;28;20033;-80
2023/03/17 09:54:44;;;;;;;16.88;5.80;;;;;;;;;;5028977;28;20037;-81
2023/03/17 09:57:38;;;;;;;13.43;5.82;;;;;;;;;;5034349;28;20042;-81
2023/03/17 10:00:27;;;;;;;6.97;4.07;;;;;;;;;;5028652;28;20386;-81
2023/03/17 10:03:13;;;;;;;7.05;4.60;;;;;;;;;;5031807;28;20049;-81
2023/03/17 10:06:14;;;;;;;10.75;4.65;;;;;;;;;;5040586;28;20425;-80
2023/03/17 10:09:17;;;;;;;4.10;3.28;;;;;;;;;;5025368;28;20053;-81
2023/03/17 10:12:14;;;;;;;6.20;2.15;;;;;;;;;;5030979;28;20045;-80
2023/03/17 10:15:14;;;;;;;8.48;4.45;;;;;;;;;;5038282;28;20053;-80
2023/03/17 10:18:01;;;;;;;9.32;4.15;;;;;;;;;;5038085;28;20045;-80
2023/03/17 10:21:06;;;;;;;4.25;2.20;;;;;;;;;;5029429;28;20045;-81
2023/03/17 10:23:53;;;;;;;12.80;5.78;;;;;;;;;;5038914;28;20037;-81
2023/03/17 10:26:43;;;;;;;10.20;5.28;;;;;;;;;;5038194;28;20049;-80
2023/03/17 10:29:30;;;;;;;7.35;4.18;;;;;;;;;;5038378;28;20053;-80
2023/03/17 10:32:15;;;;;;;14.75;4.75;;;;;;;;;;5039740;28;20034;-81
2023/03/17 10:35:00;;;;;;;9.68;5.15;;;;;;;;;;5029560;28;20054;-80
2023/03/17 10:37:46;;;;;;;8.55;4.50;;;;;;;;;;5023061;28;20045;-80
2023/03/17 10:40:34;;;;;;;8.95;4.68;;;;;;;;;;5028800;28;20045;-82
2023/03/17 10:43:21;;;;;;;4.70;2.22;;;;;;;;;;5029665;28;20498;-83
2023/03/17 10:46:23;;;;;;;4.43;2.42;;;;;;;;;;5045903;28;20049;-81
2023/03/17 10:49:16;;;;;;;8.27;2.83;;;;;;;;;;5037995;28;20406;-81
2023/03/17 10:52:06;;;;;;;5.97;2.80;;;;;;;;;;5038172;28;20425;-81
2023/03/17 10:54:53;;;;;;;3.80;2.22;;;;;;;;;;5025118;28;20489;-82
2023/03/17 10:57:46;;;;;;;15.13;4.05;;;;;;;;;;5039922;28;20045;-79
2023/03/17 11:00:37;;;;;;;4.90;2.42;;;;;;;;;;5024429;28;20406;-80
2023/03/17 11:03:28;;;;;;;1.23;1.10;;;;;;;;;;5036342;28;20041;-81
2023/03/17 11:06:17;;;;;;;4.53;2.20;;;;;;;;;;5041996;28;20045;-81
2023/03/17 11:09:09;;;;;;;4.53;2.38;;;;;;;;;;5014715;28;20053;-80
2023/03/17 11:12:02;;;;;;;10.25;2.97;;;;;;;;;;5030030;28;20068;-81
2023/03/17 11:14:49;;;;;;;5.10;1.63;;;;;;;;;;5024844;28;20498;-81
2023/03/17 11:17:41;;;;;;;7.72;2.20;;;;;;;;;;5033563;28;20049;-80
2023/03/17 11:20:39;;;;;;;3.13;1.45;;;;;;;;;;5033469;28;20045;-81
2023/03/17 11:23:40;;;;;;;7.20;2.10;;;;;;;;;;5018291;28;20042;-79
2023/03/17 11:26:44;;;;;;;3.72;2.13;;;;;;;;;;5033654;28;20481;-82
2023/03/17 11:29:30;;;;;;;5.97;2.03;;;;;;;;;;5032228;28;20393;-81
2023/03/17 11:32:27;;;;;;;7.43;2.60;;;;;;;;;;5033224;28;20037;-81
2023/03/17 11:35:42;;;;;;;3.45;2.22;;;;;;;;;;5033144;28;20049;-81
2023/03/17 11:38:33;;;;;;;3.35;2.17;;;;;;;;;;5025352;28;20490;-80
2023/03/17 11:41:17;;;;;;;7.07;2.40;;;;;;;;;;5032656;28;20049;-79
2023/03/17 11:44:17;;;;;;;6.00;2.65;;;;;;;;;;5033293;28;20033;-81
2023/03/17 11:47:27;;;;;;;6.57;2.63;;;;;;;;;;5017989;28;20037;-82
2023/03/17 11:50:28;;;;;;;6.03;2.10;;;;;;;;;;5031615;28;20038;-81
2023/03/17 11:53:17;;;;;;;8.57;3.83;;;;;;;;;;5052201;28;20405;-81
2023/03/17 11:56:12;;;;;;;8.93;4.68;;;;;;;;;;5032725;28;20046;-81
2023/03/17 11:59:01;;;;;;;4.50;2.42;;;;;;;;;;5033137;28;20045;-82
2023/03/17 12:01:54;;;;;;;4.63;2.55;;;;;;;;;;5032604;28;20494;-82
2023/03/17 12:04:52;;;;;;;4.38;2.88;;;;;;;;;;5032218;28;20049;-80
2023/03/17 12:07:50;;;;;;;2.25;1.55;;;;;;;;;;5032862;28;20486;-80
2023/03/17 12:10:43;;;;;;;7.05;3.38;;;;;;;;;;5033032;28;20041;-80
2023/03/17 12:14:06;;;;;;;3.47;1.63;;;;;;;;;;5031271;28;20041;-80
2023/03/17 12:17:03;;;;;;;9.32;3.50;;;;;;;;;;5036706;28;20037;-80
2023/03/17 12:20:17;;;;;;;3.70;2.25;;;;;;;;;;5032704;28;20490;-81
2023/03/17 12:23:15;;;;;;;3.75;2.03;;;;;;;;;;5032272;28;20045;-80
2023/03/17 12:26:07;;;;;;;2.75;2.17;;;;;;;;;;5031605;28;20045;-81
2023/03/17 12:29:08;;;;;;;7.20;2.33;;;;;;;;;;5031519;28;20041;-81
2023/03/17 12:32:35;;;;;;;12.52;6.47;;;;;;;;;;5032142;28;20033;-81
2023/03/17 12:35:27;;;;;;;6.80;3.55;;;;;;;;;;5032431;28;20042;-81
2023/03/17 12:38:24;;;;;;;5.10;2.40;;;;;;;;;;5030896;28;20054;-79
2023/03/17 12:41:21;;;;;;;6.93;4.25;;;;;;;;;;5032269;28;20045;-80
2023/03/17 12:44:13;;;;;;;5.10;1.80;;;;;;;;;;5036241;28;20061;-81
2023/03/17 12:47:30;;;;;;;6.90;2.58;;;;;;;;;;5031915;28;20042;-81
2023/03/17 12:50:28;;;;;;;4.30;2.83;;;;;;;;;;5037177;28;20038;-81
2023/03/17 12:53:33;;;;;;;5.75;3.55;;;;;;;;;;5030800;28;20045;-81
2023/03/17 12:56:26;;;;;;;6.13;3.42;;;;;;;;;;5031907;28;20045;-80
2023/03/17 12:59:18;;;;;;;3.45;2.13;;;;;;;;;;5036943;28;20053;-81
2023/03/17 13:02:16;;;;;;;3.95;2.00;;;;;;;;;;5031227;28;20046;-82
2023/03/17 13:05:06;;;;;;;3.80;2.13;;;;;;;;;;5041914;28;20052;-81
2023/03/17 13:07:55;;;;;;;10.90;4.55;;;;;;;;;;5041109;28;20402;-80
2023/03/17 13:10:42;;;;;;;11.65;4.40;;;;;;;;;;5041200;28;20041;-80
2023/03/17 13:13:39;;;;;;;9.55;5.05;;;;;;;;;;5041334;28;20045;-81
2023/03/17 13:16:38;;;;;;;4.88;2.65;;;;;;;;;;5041014;28;20041;-80
2023/03/17 13:19:26;;;;;;;8.38;3.78;;;;;;;;;;5041055;28;20057;-79
2023/03/17 13:22:11;;;;;;;4.82;2.67;;;;;;;;;;5041558;28;20405;-83
2023/03/17 13:25:12;;;;;;;8.98;4.47;;;;;;;;;;5041562;28;20041;-80
2023/03/17 13:28:10;;;;;;;4.25;3.03;;;;;;;;;;5033360;28;20052;-80
2023/03/17 13:31:30;;;;;;;8.68;2.50;;;;;;;;;;5041253;28;20049;-80
2023/03/17 13:34:17;;;;;;;4.78;2.33;;;;;;;;;;5041135;28;20044;-80
2023/03/17 13:37:47;;;;;;;8.65;3.00;;;;;;;;;;5046265;28;20053;-81
2023/03/17 13:40:42;;;;;;;4.80;2.58;;;;;;;;;;5023712;28;20482;-81
2023/03/17 13:43:27;;;;;;;4.28;2.75;;;;;;;;;;5041400;28;20044;-80
2023/03/17 13:46:32;;;;;;;3.53;1.98;;;;;;;;;;5040912;28;20045;-79
2023/03/17 13:49:21;;;;;;;9.65;3.88;;;;;;;;;;5040757;28;20048;-80
2023/03/17 13:52:14;;;;;;;5.35;2.85;;;;;;;;;;5040768;28;20045;-81
2023/03/17 13:55:17;;;;;;;5.28;2.85;;;;;;;;;;5025253;28;20482;-81
2023/03/17 13:58:06;;;;;;;6.32;3.90;;;;;;;;;;5040268;28;20045;-79
2023/03/17 14:00:58;;;;;;;13.13;6.47;;;;;;;;;;5040702;28;20046;-79
2023/03/17 14:03:49;;;;;;;4.18;2.38;;;;;;;;;;5032044;28;20045;-79
2023/03/17 14:06:36;;;;;;;11.30;6.18;;;;;;;;;;5021777;28;20045;-80
2023/03/17 14:09:36;;;;;;;5.78;3.60;;;;;;;;;;5029411;28;20045;-80
2023/03/17 14:12:44;;;;;;;5.93;2.85;;;;;;;;;;5030462;28;20049;-81
2023/03/17 14:15:55;;;;;;;6.95;3.67;;;;;;;;;;5029898;28;20045;-80
2023/03/17 14:18:48;;;;;;;2.88;1.52;;;;;;;;;;5013862;28;20478;-80
2023/03/17 14:21:34;;;;;;;6.13;3.05;;;;;;;;;;5021939;28;20045;-80
2023/03/17 14:24:22;;;;;;;7.03;3.22;;;;;;;;;;5014770;28;20041;-79
2023/03/17 14:27:10;;;;;;;16.08;9.18;;;;;;;;;;5021945;28;20050;-80
2023/03/17 14:30:03;;;;;;;41.95;19.00;;;;;;;;;;5029529;28;20049;-79
2023/03/17 14:33:33;;;;;;;9.23;4.30;;;;;;;;;;5030155;28;20057;-81
2023/03/17 14:36:19;;;;;;;5.00;3.10;;;;;;;;;;5009140;28;20049;-81
2023/03/17 14:39:04;;;;;;;8.95;4.97;;;;;;;;;;5014776;28;20053;-79
2023/03/17 14:41:58;;;;;;;10.63;5.20;;;;;;;;;;5029294;28;20049;-80
2023/03/17 14:44:43;;;;;;;7.43;5.75;;;;;;;;;;5028698;28;20050;-80
2023/03/17 14:47:36;;;;;;;11.52;7.35;;;;;;;;;;5022116;28;20045;-80
2023/03/17 14:50:29;;;;;;;10.27;6.70;;;;;;;;;;5034012;28;20061;-81
2023/03/17 14:53:15;;;;;;;6.95;4.97;;;;;;;;;;5033974;28;20061;-80
2023/03/17 14:56:03;;;;;;;7.15;5.38;;;;;;;;;;5025665;28;20494;-81
2023/03/17 14:58:50;;;;;;;5.60;3.17;;;;;;;;;;5032816;28;20042;-82
2023/03/17 15:01:40;;;;;;;7.80;2.92;;;;;;;;;;5019100;28;20418;-80
2023/03/17 15:04:31;;;;;;;6.15;2.50;;;;;;;;;;5012156;28;20414;-79
2023/03/17 15:07:46;;;;;;;8.65;3.15;;;;;;;;;;5014432;28;20049;-80
2023/03/17 15:10:41;;;;;;;6.75;2.90;;;;;;;;;;5002117;28;20053;-81
2023/03/17 15:13:27;;;;;;;8.90;3.97;;;;;;;;;;5014608;28;20041;-82
2023/03/17 15:16:29;;;;;;;4.90;2.40;;;;;;;;;;5002274;28;20049;-80
2023/03/17 15:19:17;;;;;;;4.80;3.03;;;;;;;;;;5013885;28;20053;-79
2023/03/17 15:22:19;;;;;;;11.38;6.10;;;;;;;;;;5014436;28;20062;-79
2023/03/17 15:25:25;;;;;;;9.55;4.15;;;;;;;;;;5013799;28;20050;-80
2023/03/17 15:28:15;;;;;;;9.68;5.63;;;;;;;;;;5019080;28;20057;-79
2023/03/17 15:31:12;;;;;;;33.13;13.38;;;;;;;;;;5012493;28;20046;-80
2023/03/17 15:33:56;;;;;;;7.30;4.53;;;;;;;;;;5013911;28;20041;-81
2023/03/17 15:36:46;;;;;;;15.43;7.10;;;;;;;;;;5013807;28;20029;-80
2023/03/17 15:39:30;;;;;;;5.57;3.55;;;;;;;;;;5011363;28;20058;-80
2023/03/17 15:42:17;;;;;;;9.10;4.45;;;;;;;;;;5012135;28;20046;-79
2023/03/17 15:45:03;;;;;;;10.38;4.38;;;;;;;;;;5010566;28;20042;-81
2023/03/17 15:47:49;;;;;;;104.72;38.60;;;;;;;;;;5012664;28;20050;-80
2023/03/17 15:50:35;;;;;;;8.00;4.80;;;;;;;;;;5012411;28;20380;-79
2023/03/17 15:53:20;;;;;;;6.63;3.95;;;;;;;;;;5017777;28;20049;-81
2023/03/17 15:56:14;;;;;;;13.50;6.07;;;;;;;;;;5013414;28;20041;-82
2023/03/17 15:58:59;;;;;;;16.05;6.80;;;;;;;;;;5014307;28;20046;-80
2023/03/17 16:01:45;;;;;;;11.30;6.72;;;;;;;;;;5011123;28;20041;-83
2023/03/17 16:04:31;;;;;;;12.10;7.63;;;;;;;;;;5023931;28;20413;-82
2023/03/17 16:07:30;;;;;;;14.25;5.85;;;;;;;;;;5023552;28;20813;-81
2023/03/17 16:10:24;;;;;;;12.63;7.20;;;;;;;;;;5024127;28;20045;-82
2023/03/17 16:13:11;;;;;;;20.08;12.10;;;;;;;;;;5023764;28;20056;-82
2023/03/17 16:16:00;;;;;;;33.92;18.67;;;;;;;;;;5023434;28;20037;-82
2023/03/17 16:18:46;;;;;;;38.17;21.40;;;;;;;;;;5023072;28;20038;-81
2023/03/17 16:21:31;;;;;;;14.63;9.00;;;;;;;;;;5020881;28;20046;-82
2023/03/17 16:24:20;;;;;;;14.00;7.78;;;;;;;;;;5023185;28;20046;-80
2023/03/17 16:27:13;;;;;;;26.25;14.82;;;;;;;;;;5007501;28;20045;-81
2023/03/17 16:29:58;;;;;;;25.38;14.57;;;;;;;;;;5021440;28;20042;-82
2023/03/17 16:32:44;;;;;;;63.72;32.22;;;;;;;;;;5022895;28;20041;-82
2023/03/17 16:35:29;;;;;;;127.57;65.22;;;;;;;;;;5022775;28;20041;-82
2023/03/17 16:38:19;;;;;;;62.63;31.58;;;;;;;;;;5007497;28;20402;-81
2023/03/17 16:41:08;;;;;;;102.13;54.40;;;;;;;;;;5022990;28;20387;-81
2023/03/17 16:43:59;;;;;;;76.55;39.63;;;;;;;;;;5021962;28;20037;-83